createdAt,value
2022-08-26T00:03:46.393Z,15.10
2022-08-26T00:08:50.864Z,13.77
2022-08-26T00:13:53.802Z,12.20
2022-08-26T00:18:56.932Z,12.85
2022-08-26T00:24:01.169Z,11.20
2022-08-26T00:29:04.660Z,12.27
2022-08-26T00:34:09.316Z,15.82
2022-08-26T00:39:14.170Z,11.85
2022-08-26T00:44:19.125Z,10.30
2022-08-26T00:49:33.649Z,10.52
2022-08-26T00:54:46.592Z,10.75
2022-08-26T00:59:52.616Z,14.77
2022-08-26T01:04:59.008Z,12.73
2022-08-26T01:10:07.143Z,15.23
2022-08-26T01:15:11.709Z,13.88
2022-08-26T01:20:22.832Z,19.30
2022-08-26T01:25:30.046Z,17.02
2022-08-26T01:30:33.254Z,16.50
2022-08-26T01:35:37.527Z,15.85
2022-08-26T01:40:44.007Z,13.57
2022-08-26T01:45:47.899Z,17.52
2022-08-26T01:50:51.613Z,17.98
2022-08-26T01:55:58.098Z,14.32
2022-08-26T02:01:01.004Z,18.02
2022-08-26T02:06:09.147Z,11.88
2022-08-26T02:11:14.070Z,12.05
2022-08-26T02:16:17.786Z,15.38
2022-08-26T02:21:20.655Z,17.38
2022-08-26T02:26:26.909Z,14.85
2022-08-26T02:31:30.482Z,13.60
2022-08-26T02:36:33.285Z,14.30
2022-08-26T02:41:40.331Z,17.17
2022-08-26T02:46:48.298Z,16.52
2022-08-26T02:51:51.989Z,15.48
2022-08-26T02:56:56.539Z,13.90
2022-08-26T03:02:00.392Z,14.70
2022-08-26T03:07:03.240Z,13.95
2022-08-26T03:12:07.812Z,20.08
2022-08-26T03:17:10.961Z,12.73
2022-08-26T03:22:14.559Z,9.10
2022-08-26T03:27:19.477Z,12.60
2022-08-26T03:32:22.243Z,13.02
2022-08-26T03:37:29.932Z,10.82
2022-08-26T03:42:34.060Z,10.90
2022-08-26T03:47:36.839Z,14.38
2022-08-26T03:52:43.929Z,12.80
2022-08-26T03:57:48.424Z,12.90
2022-08-26T04:02:53.360Z,13.80
2022-08-26T04:07:56.374Z,10.77
2022-08-26T04:13:00.806Z,10.40
2022-08-26T04:18:03.614Z,12.88
2022-08-26T04:23:06.564Z,13.38
2022-08-26T04:28:11.651Z,15.18
2022-08-26T04:33:14.567Z,18.33
2022-08-26T04:38:19.846Z,12.40
2022-08-26T04:43:24.238Z,9.70
2022-08-26T04:48:28.408Z,10.90
2022-08-26T04:53:32.176Z,12.57
2022-08-26T04:58:36.701Z,17.00
2022-08-26T05:03:39.461Z,19.75
2022-08-26T05:08:43.821Z,16.80
2022-08-26T05:13:48.265Z,14.43
2022-08-26T05:18:54.882Z,21.55
2022-08-26T05:23:57.863Z,14.88
2022-08-26T05:29:02.540Z,13.13
2022-08-26T05:34:06.913Z,15.90
2022-08-26T05:39:10.498Z,22.42
2022-08-26T05:44:18.672Z,17.98
2022-08-26T05:49:26.212Z,18.73
2022-08-26T05:54:29.244Z,17.05
2022-08-26T05:59:33.302Z,18.23
2022-08-26T06:04:38.514Z,16.88
2022-08-26T06:09:41.527Z,16.83
2022-08-26T06:14:45.604Z,16.60
2022-08-26T06:19:51.758Z,20.42
2022-08-26T06:25:12.079Z,15.95
2022-08-26T06:30:16.623Z,16.90
2022-08-26T06:35:19.618Z,18.73
2022-08-26T06:40:24.524Z,17.98
2022-08-26T06:45:29.183Z,17.75
2022-08-26T06:50:34.055Z,17.90
2022-08-26T06:55:40.904Z,19.88
2022-08-26T07:00:47.331Z,16.60
2022-08-26T07:05:50.459Z,14.98
2022-08-26T07:10:56.274Z,14.82
2022-08-26T07:16:03.019Z,20.23
2022-08-26T07:21:07.722Z,15.63
2022-08-26T07:26:16.165Z,13.15
2022-08-26T07:31:21.779Z,19.55
2022-08-26T07:36:25.211Z,18.02
2022-08-26T07:46:37.118Z,17.38
2022-08-26T07:51:40.269Z,18.95
2022-08-26T07:56:44.242Z,16.88
2022-08-26T08:01:48.557Z,14.85
2022-08-26T08:06:51.401Z,14.15
2022-08-26T08:11:54.516Z,18.13
2022-08-26T08:16:58.757Z,17.55
2022-08-26T08:22:03.371Z,17.95
2022-08-26T08:27:10.702Z,27.38
2022-08-26T08:32:15.481Z,20.17
2022-08-26T08:37:18.345Z,15.13
2022-08-26T08:42:35.442Z,11.48
2022-08-26T08:47:42.069Z,14.70
2022-08-26T08:52:46.394Z,17.67
2022-08-26T08:58:02.406Z,12.23
2022-08-26T09:03:11.890Z,18.77
2022-08-26T09:08:19.909Z,15.23
2022-08-26T09:13:26.380Z,14.32
2022-08-26T09:18:40.295Z,16.63
2022-08-26T09:23:43.904Z,14.70
2022-08-26T09:28:55.217Z,14.95
2022-08-26T09:34:08.923Z,15.23
2022-08-26T09:39:34.147Z,10.00
2022-08-26T09:44:53.616Z,15.65
2022-08-26T09:50:02.065Z,9.20
2022-08-26T09:55:08.557Z,15.63
2022-08-26T10:00:26.704Z,17.77
2022-08-26T10:05:42.264Z,16.67
2022-08-26T10:10:46.178Z,13.60
2022-08-26T10:15:59.791Z,18.50
2022-08-26T10:21:08.276Z,14.60
2022-08-26T10:26:15.120Z,17.85
2022-08-26T10:31:27.804Z,17.45
2022-08-26T10:37:10.757Z,15.18
2022-08-26T10:42:20.253Z,12.13
2022-08-26T10:47:26.945Z,10.32
2022-08-26T10:52:36.647Z,9.98
2022-08-26T10:57:45.045Z,10.23
2022-08-26T11:02:50.202Z,13.02
2022-08-26T11:08:37.951Z,10.55
2022-08-26T11:14:03.270Z,16.50
2022-08-26T11:19:06.842Z,11.82
2022-08-26T11:24:09.593Z,13.98
2022-08-26T11:29:13.939Z,8.40
2022-08-26T11:34:16.838Z,5.13
2022-08-26T11:39:25.071Z,7.57
2022-08-26T11:44:38.365Z,9.65
2022-08-26T11:49:41.833Z,9.38
2022-08-26T11:55:02.902Z,10.80
2022-08-26T12:00:12.513Z,12.85
2022-08-26T12:05:21.702Z,12.40
2022-08-26T12:10:29.880Z,13.23
2022-08-26T12:15:35.439Z,8.35
2022-08-26T12:20:53.879Z,10.77
2022-08-26T12:26:05.535Z,6.03
2022-08-26T12:31:10.313Z,9.90
2022-08-26T12:36:13.321Z,8.90
2022-08-26T12:41:41.565Z,9.30
2022-08-26T12:46:49.273Z,11.35
2022-08-26T12:51:52.653Z,6.53
2022-08-26T12:56:55.454Z,7.88
2022-08-26T13:02:00.394Z,4.88
2022-08-26T13:07:23.136Z,4.25
2022-08-26T13:12:29.323Z,4.57
2022-08-26T13:17:35.846Z,6.03
2022-08-26T13:22:38.588Z,6.05
2022-08-26T13:27:41.390Z,4.70
2022-08-26T13:32:45.638Z,5.38
2022-08-26T13:37:48.387Z,6.03
2022-08-26T13:42:51.504Z,8.45
2022-08-26T13:47:55.612Z,3.15
2022-08-26T13:52:58.412Z,4.38
2022-08-26T13:58:01.331Z,5.60
2022-08-26T14:03:08.217Z,5.63
2022-08-26T14:08:14.391Z,4.85
2022-08-26T14:13:17.179Z,6.43
2022-08-26T14:18:24.381Z,4.95
2022-08-26T14:23:29.219Z,4.03
2022-08-26T14:28:32.040Z,4.90
2022-08-26T14:33:38.153Z,4.72
2022-08-26T14:38:41.916Z,3.10
2022-08-26T14:43:48.673Z,4.78
2022-08-26T14:48:52.869Z,4.35
2022-08-26T14:54:14.591Z,4.82
2022-08-26T14:59:21.261Z,6.07
2022-08-26T15:04:25.975Z,4.70
2022-08-26T15:09:30.215Z,5.95
2022-08-26T15:14:33.315Z,4.35
2022-08-26T15:19:38.689Z,5.00
2022-08-26T15:24:41.455Z,8.65
2022-08-26T15:29:44.861Z,6.72
2022-08-26T15:34:50.116Z,6.30
2022-08-26T15:39:53.915Z,6.68
2022-08-26T15:44:56.865Z,7.68
2022-08-26T15:50:02.311Z,7.05
2022-08-26T15:55:06.012Z,6.20
2022-08-26T16:00:18.291Z,9.10
2022-08-26T16:05:22.493Z,6.20
2022-08-26T16:10:25.365Z,9.18
2022-08-26T16:15:28.344Z,8.70
2022-08-26T16:20:34.275Z,7.15
2022-08-26T16:25:37.099Z,7.35
2022-08-26T16:30:45.894Z,6.53
2022-08-26T16:40:54.032Z,5.75
2022-08-26T16:45:57.618Z,7.10
2022-08-26T16:51:01.898Z,8.13
2022-08-26T16:56:05.100Z,7.70
2022-08-26T17:01:08.301Z,6.35
2022-08-26T17:06:13.099Z,6.88
2022-08-26T17:11:16.242Z,6.72
2022-08-26T17:16:21.254Z,5.63
2022-08-26T17:21:28.205Z,6.00
2022-08-26T17:26:31.259Z,7.20
2022-08-26T17:31:34.923Z,6.35
2022-08-26T17:36:39.010Z,6.90
2022-08-26T17:41:42.206Z,5.40
2022-08-26T17:46:44.992Z,16.90
2022-08-26T17:51:49.217Z,5.03
2022-08-26T17:56:52.024Z,8.52
2022-08-26T18:01:57.443Z,5.05
2022-08-26T18:07:01.627Z,4.85
2022-08-26T18:12:04.986Z,4.18
2022-08-26T18:17:07.810Z,7.13
2022-08-26T18:22:11.886Z,10.55
2022-08-26T18:27:18.498Z,4.85
2022-08-26T18:32:21.274Z,5.72
2022-08-26T18:37:27.990Z,5.57
2022-08-26T18:42:33.950Z,3.95
2022-08-26T18:47:36.984Z,4.32
2022-08-26T18:52:41.351Z,4.05
2022-08-26T18:57:44.090Z,3.72
2022-08-26T19:02:47.038Z,6.38
2022-08-26T19:07:56.569Z,7.07
2022-08-26T19:13:00.813Z,5.40
2022-08-26T19:18:06.035Z,6.65
2022-08-26T19:23:30.223Z,5.90
2022-08-26T19:28:33.753Z,4.53
2022-08-26T19:33:36.556Z,4.03
2022-08-26T19:38:40.753Z,4.97
2022-08-26T19:43:43.508Z,8.05
2022-08-26T19:48:54.027Z,3.80
2022-08-26T19:54:01.264Z,5.32
2022-08-26T19:59:04.038Z,5.50
2022-08-26T20:04:06.859Z,5.15
2022-08-26T20:09:10.922Z,4.80
2022-08-26T20:14:13.630Z,5.78
2022-08-26T20:19:37.340Z,3.80
2022-08-26T20:24:42.101Z,5.18
2022-08-26T20:29:45.047Z,4.65
2022-08-26T20:34:48.119Z,6.07
2022-08-26T20:39:52.295Z,5.53
2022-08-26T20:44:55.237Z,4.57
2022-08-26T20:49:58.193Z,4.60
2022-08-26T20:55:02.493Z,5.60
2022-08-26T21:00:05.957Z,4.38
2022-08-26T21:05:09.805Z,6.50
2022-08-26T21:10:14.452Z,7.63
2022-08-26T21:15:17.393Z,5.78
2022-08-26T21:20:20.709Z,4.50
2022-08-26T21:25:25.066Z,4.47
2022-08-26T21:30:28.099Z,8.15
2022-08-26T21:35:30.842Z,5.00
2022-08-26T21:40:35.247Z,3.67
2022-08-26T21:45:40.735Z,3.65
2022-08-26T21:50:44.162Z,7.85
2022-08-26T21:55:48.273Z,5.70
2022-08-26T22:00:51.899Z,5.60
2022-08-26T22:05:54.880Z,5.65
2022-08-26T22:11:01.746Z,6.25
2022-08-26T22:16:05.631Z,5.57
2022-08-26T22:21:10.501Z,4.57
2022-08-26T22:26:20.651Z,3.95
2022-08-26T22:31:37.355Z,4.43
2022-08-26T22:36:44.398Z,7.80
2022-08-26T22:41:49.227Z,4.35
2022-08-26T22:46:54.749Z,5.30
2022-08-26T22:51:58.232Z,4.85
2022-08-26T22:57:02.667Z,5.97
2022-08-26T23:02:05.599Z,5.35
2022-08-26T23:07:11.167Z,8.27
2022-08-26T23:12:15.378Z,8.25
2022-08-26T23:17:18.236Z,5.95
2022-08-26T23:22:21.003Z,5.85
2022-08-26T23:27:25.544Z,4.68
2022-08-26T23:32:28.707Z,4.63
2022-08-26T23:37:35.947Z,6.90
2022-08-26T23:42:40.248Z,6.45
2022-08-26T23:47:43.259Z,4.70
2022-08-26T23:53:04.241Z,5.38
2022-08-26T23:58:08.387Z,6.07
